Main page
METAR-TAF:

METAR-TAF

Airports :

Saint-Etienne, France

Saint-Étienne–Bouthéon Airport

latitude: 45-32N, longitude: 004-18E, elevation: 404 m

Current weather observation

The report was made 39 minutes ago, at 01:30 UTC
Wind 6 kt from the South
Temperature 14°C
Humidity 63%
Pressure 1017 hPa
Visibility 10 km or more
no clouds below 1500 m and no cumulonimbus

METAR: LFMH 290130Z AUTO 17006KT CAVOK 14/07 Q1017

Time: 04:09 (02:09 UTC)

Forecast

The report was made 12 hours and 9 minutes ago, at 14:00 UTC
Forecast valid from 28 at 15 UTC to 29 at 15 UTC
Wind 10 kt from the South with gusts up to 20 kt
Visibility 10 km or more
no clouds below 1500 m and no cumulonimbus
Becoming
from 28 at 19 UTC to 28 at 22 UTC
Wind 6 kt from the South/Southeast
Becoming
from 29 at 12 UTC to 29 at 15 UTC
Wind 12 kt from the South/Southwest with gusts up to 22 kt

TAF: LFMH 281400Z 2815/2915 18010G20KT CAVOK BECMG 2819/2822 16006KT BECMG 2912/2915 20012G22KT

Weather observations and forecasts of more than 4000 airports (METAR and TAF reports).

The available stations are represented by yellow and red dots on the map.

Hover mouse over dot to see the name of the station.

Then click to see weather observations and forecasts.

To change the map : click on the green buttons with a black cross to zoom in, on the green button with a dash to zoom out, or on the green arrows for adjacent maps.


METAR-TAF: